sensor_id;sensor_type;location;lat;lon;timestamp;temperature;humidity
50606;DHT22;36557;53.572;10.170;2022-09-29T00:01:09;5.60;99.90
50606;DHT22;36557;53.572;10.170;2022-09-29T00:03:36;5.50;99.90
50606;DHT22;36557;53.572;10.170;2022-09-29T00:06:02;5.50;99.90
50606;DHT22;36557;53.572;10.170;2022-09-29T00:08:29;5.50;99.90
50606;DHT22;36557;53.572;10.170;2022-09-29T00:10:56;5.50;99.90
50606;DHT22;36557;53.572;10.170;2022-09-29T00:13:22;5.50;99.90
50606;DHT22;36557;53.572;10.170;2022-09-29T00:15:55;5.50;99.90
50606;DHT22;36557;53.572;10.170;2022-09-29T00:18:21;5.50;99.90
50606;DHT22;36557;53.572;10.170;2022-09-29T00:20:59;5.50;99.90
50606;DHT22;36557;53.572;10.170;2022-09-29T00:23:26;5.40;99.90
50606;DHT22;36557;53.572;10.170;2022-09-29T00:28:34;5.40;99.90
50606;DHT22;36557;53.572;10.170;2022-09-29T00:31:01;5.40;99.90
50606;DHT22;36557;53.572;10.170;2022-09-29T00:33:31;5.30;99.90
50606;DHT22;36557;53.572;10.170;2022-09-29T00:36:02;5.30;99.90
50606;DHT22;36557;53.572;10.170;2022-09-29T00:38:28;5.40;99.90
50606;DHT22;36557;53.572;10.170;2022-09-29T00:40:54;5.30;99.90
50606;DHT22;36557;53.572;10.170;2022-09-29T00:43:59;5.40;99.90
50606;DHT22;36557;53.572;10.170;2022-09-29T00:49:22;5.30;99.90
50606;DHT22;36557;53.572;10.170;2022-09-29T00:54:25;5.20;99.90
50606;DHT22;36557;53.572;10.170;2022-09-29T00:56:55;5.30;99.90
50606;DHT22;36557;53.572;10.170;2022-09-29T01:00:00;5.30;99.90
50606;DHT22;36557;53.572;10.170;2022-09-29T01:02:28;5.30;99.90
50606;DHT22;36557;53.572;10.170;2022-09-29T01:04:55;5.30;99.90
50606;DHT22;36557;53.572;10.170;2022-09-29T01:07:23;5.20;99.90
50606;DHT22;36557;53.572;10.170;2022-09-29T01:09:51;5.30;99.90
50606;DHT22;36557;53.572;10.170;2022-09-29T01:12:18;5.20;99.90
50606;DHT22;36557;53.572;10.170;2022-09-29T01:14:44;5.20;99.90
50606;DHT22;36557;53.572;10.170;2022-09-29T01:17:11;5.20;99.90
50606;DHT22;36557;53.572;10.170;2022-09-29T01:19:50;5.30;99.90
50606;DHT22;36557;53.572;10.170;2022-09-29T01:36:02;5.20;99.90
50606;DHT22;36557;53.572;10.170;2022-09-29T01:43:42;5.10;99.90
50606;DHT22;36557;53.572;10.170;2022-09-29T01:46:28;5.10;99.90
50606;DHT22;36557;53.572;10.170;2022-09-29T01:48:57;5.10;99.90
50606;DHT22;36557;53.572;10.170;2022-09-29T01:52:25;5.10;99.90
50606;DHT22;36557;53.572;10.170;2022-09-29T01:55:09;5.10;99.90
50606;DHT22;36557;53.572;10.170;2022-09-29T02:00:24;5.00;99.90
50606;DHT22;36557;53.572;10.170;2022-09-29T02:03:19;5.00;99.90
50606;DHT22;36557;53.572;10.170;2022-09-29T02:05:51;5.00;99.90
50606;DHT22;36557;53.572;10.170;2022-09-29T02:08:24;5.00;99.90
50606;DHT22;36557;53.572;10.170;2022-09-29T02:11:04;5.00;99.90
50606;DHT22;36557;53.572;10.170;2022-09-29T02:16:16;4.80;99.90
50606;DHT22;36557;53.572;10.170;2022-09-29T02:18:54;4.80;99.90
50606;DHT22;36557;53.572;10.170;2022-09-29T02:21:21;4.70;99.90
50606;DHT22;36557;53.572;10.170;2022-09-29T02:23:48;4.70;99.90
50606;DHT22;36557;53.572;10.170;2022-09-29T02:26:14;4.80;99.90
50606;DHT22;36557;53.572;10.170;2022-09-29T02:28:41;4.70;99.90
50606;DHT22;36557;53.572;10.170;2022-09-29T02:31:08;4.80;99.90
50606;DHT22;36557;53.572;10.170;2022-09-29T02:33:34;4.80;99.90
50606;DHT22;36557;53.572;10.170;2022-09-29T02:36:25;4.80;99.90
50606;DHT22;36557;53.572;10.170;2022-09-29T02:39:14;4.80;99.90
50606;DHT22;36557;53.572;10.170;2022-09-29T02:41:59;4.80;99.90
50606;DHT22;36557;53.572;10.170;2022-09-29T02:45:18;4.70;99.90
50606;DHT22;36557;53.572;10.170;2022-09-29T02:59:34;4.80;99.90
50606;DHT22;36557;53.572;10.170;2022-09-29T03:02:02;4.80;99.90
50606;DHT22;36557;53.572;10.170;2022-09-29T03:04:28;4.70;99.90
50606;DHT22;36557;53.572;10.170;2022-09-29T03:06:54;4.70;99.90
50606;DHT22;36557;53.572;10.170;2022-09-29T03:09:20;4.60;99.90
50606;DHT22;36557;53.572;10.170;2022-09-29T03:11:46;4.70;99.90
50606;DHT22;36557;53.572;10.170;2022-09-29T03:14:11;4.60;99.90
50606;DHT22;36557;53.572;10.170;2022-09-29T03:16:37;4.70;99.90
50606;DHT22;36557;53.572;10.170;2022-09-29T03:19:04;4.60;99.90
50606;DHT22;36557;53.572;10.170;2022-09-29T03:21:33;4.60;99.90
50606;DHT22;36557;53.572;10.170;2022-09-29T03:24:00;4.60;99.90
50606;DHT22;36557;53.572;10.170;2022-09-29T03:26:26;4.60;99.90
50606;DHT22;36557;53.572;10.170;2022-09-29T03:28:52;4.60;99.90
50606;DHT22;36557;53.572;10.170;2022-09-29T03:31:17;4.60;99.90
50606;DHT22;36557;53.572;10.170;2022-09-29T03:33:43;4.60;99.90
50606;DHT22;36557;53.572;10.170;2022-09-29T03:36:09;4.60;99.90
50606;DHT22;36557;53.572;10.170;2022-09-29T03:38:36;4.50;99.90
50606;DHT22;36557;53.572;10.170;2022-09-29T03:41:02;4.50;99.90
50606;DHT22;36557;53.572;10.170;2022-09-29T03:43:28;4.50;99.90
50606;DHT22;36557;53.572;10.170;2022-09-29T03:45:55;4.50;99.90
50606;DHT22;36557;53.572;10.170;2022-09-29T03:48:21;4.50;99.90
50606;DHT22;36557;53.572;10.170;2022-09-29T03:50:48;4.60;99.90
50606;DHT22;36557;53.572;10.170;2022-09-29T03:53:15;4.50;99.90
50606;DHT22;36557;53.572;10.170;2022-09-29T03:55:50;4.50;99.90
50606;DHT22;36557;53.572;10.170;2022-09-29T03:58:17;4.50;99.90
50606;DHT22;36557;53.572;10.170;2022-09-29T04:00:43;4.60;99.90
50606;DHT22;36557;53.572;10.170;2022-09-29T04:03:09;4.60;99.90
50606;DHT22;36557;53.572;10.170;2022-09-29T04:05:35;4.60;99.90
50606;DHT22;36557;53.572;10.170;2022-09-29T04:08:04;4.50;99.90
50606;DHT22;36557;53.572;10.170;2022-09-29T04:10:33;4.60;99.90
50606;DHT22;36557;53.572;10.170;2022-09-29T04:12:58;4.50;99.90
50606;DHT22;36557;53.572;10.170;2022-09-29T04:15:24;4.60;99.90
50606;DHT22;36557;53.572;10.170;2022-09-29T04:17:50;4.60;99.90
50606;DHT22;36557;53.572;10.170;2022-09-29T04:20:15;4.60;99.90
50606;DHT22;36557;53.572;10.170;2022-09-29T04:22:41;4.70;99.90
50606;DHT22;36557;53.572;10.170;2022-09-29T04:25:07;4.70;99.90
50606;DHT22;36557;53.572;10.170;2022-09-29T04:27:33;4.70;99.90
50606;DHT22;36557;53.572;10.170;2022-09-29T04:29:59;4.70;99.90
50606;DHT22;36557;53.572;10.170;2022-09-29T04:32:24;4.70;99.90
50606;DHT22;36557;53.572;10.170;2022-09-29T04:34:50;4.70;99.90
50606;DHT22;36557;53.572;10.170;2022-09-29T04:37:16;4.70;99.90
50606;DHT22;36557;53.572;10.170;2022-09-29T04:39:42;4.70;99.90
50606;DHT22;36557;53.572;10.170;2022-09-29T04:42:08;4.70;99.90
50606;DHT22;36557;53.572;10.170;2022-09-29T04:44:33;4.70;99.90
50606;DHT22;36557;53.572;10.170;2022-09-29T04:46:59;4.80;99.90
50606;DHT22;36557;53.572;10.170;2022-09-29T04:49:25;4.80;99.90
50606;DHT22;36557;53.572;10.170;2022-09-29T04:51:50;4.80;99.90
50606;DHT22;36557;53.572;10.170;2022-09-29T04:54:16;4.80;99.90
50606;DHT22;36557;53.572;10.170;2022-09-29T04:56:42;4.80;99.90
50606;DHT22;36557;53.572;10.170;2022-09-29T04:59:09;4.80;99.90
50606;DHT22;36557;53.572;10.170;2022-09-29T05:01:35;4.70;99.90
50606;DHT22;36557;53.572;10.170;2022-09-29T05:04:01;4.80;99.90
50606;DHT22;36557;53.572;10.170;2022-09-29T05:06:27;4.90;99.90
50606;DHT22;36557;53.572;10.170;2022-09-29T05:08:52;4.80;99.90
50606;DHT22;36557;53.572;10.170;2022-09-29T05:11:18;4.80;99.90
50606;DHT22;36557;53.572;10.170;2022-09-29T05:13:48;4.80;99.90
50606;DHT22;36557;53.572;10.170;2022-09-29T05:16:14;4.80;99.90
50606;DHT22;36557;53.572;10.170;2022-09-29T05:18:40;4.70;99.90
50606;DHT22;36557;53.572;10.170;2022-09-29T05:21:07;4.80;99.90
50606;DHT22;36557;53.572;10.170;2022-09-29T05:23:33;4.80;99.90
50606;DHT22;36557;53.572;10.170;2022-09-29T05:26:06;4.80;99.90
50606;DHT22;36557;53.572;10.170;2022-09-29T05:28:33;4.80;99.90
50606;DHT22;36557;53.572;10.170;2022-09-29T05:31:04;4.80;99.90
50606;DHT22;36557;53.572;10.170;2022-09-29T05:33:30;4.90;99.90
50606;DHT22;36557;53.572;10.170;2022-09-29T05:35:56;4.80;99.90
50606;DHT22;36557;53.572;10.170;2022-09-29T05:38:22;4.80;99.90
50606;DHT22;36557;53.572;10.170;2022-09-29T05:40:48;4.90;99.90
50606;DHT22;36557;53.572;10.170;2022-09-29T05:43:14;4.90;99.90
50606;DHT22;36557;53.572;10.170;2022-09-29T05:45:40;5.00;99.90
50606;DHT22;36557;53.572;10.170;2022-09-29T05:48:07;5.10;99.90
50606;DHT22;36557;53.572;10.170;2022-09-29T05:50:33;5.10;99.90
50606;DHT22;36557;53.572;10.170;2022-09-29T05:53:06;5.30;99.90
50606;DHT22;36557;53.572;10.170;2022-09-29T05:55:32;5.20;99.90
50606;DHT22;36557;53.572;10.170;2022-09-29T05:57:58;5.40;99.90
50606;DHT22;36557;53.572;10.170;2022-09-29T06:00:23;5.50;99.90
50606;DHT22;36557;53.572;10.170;2022-09-29T06:02:49;5.50;99.90
50606;DHT22;36557;53.572;10.170;2022-09-29T06:05:15;5.60;99.90
50606;DHT22;36557;53.572;10.170;2022-09-29T06:07:41;5.70;99.90
50606;DHT22;36557;53.572;10.170;2022-09-29T06:10:06;5.70;99.90
50606;DHT22;36557;53.572;10.170;2022-09-29T06:12:36;5.80;99.90
50606;DHT22;36557;53.572;10.170;2022-09-29T06:15:03;5.90;99.90
50606;DHT22;36557;53.572;10.170;2022-09-29T06:17:29;6.00;99.90
50606;DHT22;36557;53.572;10.170;2022-09-29T06:19:55;6.10;99.90
50606;DHT22;36557;53.572;10.170;2022-09-29T06:22:21;6.10;99.90
50606;DHT22;36557;53.572;10.170;2022-09-29T06:24:46;6.40;99.90
50606;DHT22;36557;53.572;10.170;2022-09-29T06:27:12;6.30;99.90
50606;DHT22;36557;53.572;10.170;2022-09-29T06:29:39;6.40;99.90
50606;DHT22;36557;53.572;10.170;2022-09-29T06:32:04;6.50;99.90
50606;DHT22;36557;53.572;10.170;2022-09-29T06:34:30;6.60;99.90
50606;DHT22;36557;53.572;10.170;2022-09-29T06:36:56;6.70;99.90
50606;DHT22;36557;53.572;10.170;2022-09-29T06:39:40;6.80;99.90
50606;DHT22;36557;53.572;10.170;2022-09-29T06:42:06;6.90;99.90
50606;DHT22;36557;53.572;10.170;2022-09-29T06:44:31;6.90;99.90
50606;DHT22;36557;53.572;10.170;2022-09-29T06:46:57;7.10;99.90
50606;DHT22;36557;53.572;10.170;2022-09-29T06:49:24;7.30;99.90
50606;DHT22;36557;53.572;10.170;2022-09-29T06:51:50;7.20;99.90
50606;DHT22;36557;53.572;10.170;2022-09-29T06:54:18;7.40;99.90
50606;DHT22;36557;53.572;10.170;2022-09-29T06:56:50;7.50;99.90
50606;DHT22;36557;53.572;10.170;2022-09-29T06:59:16;7.50;99.90
50606;DHT22;36557;53.572;10.170;2022-09-29T07:01:42;7.60;99.90
50606;DHT22;36557;53.572;10.170;2022-09-29T07:04:08;7.60;99.90
50606;DHT22;36557;53.572;10.170;2022-09-29T07:06:34;7.70;99.90
50606;DHT22;36557;53.572;10.170;2022-09-29T07:09:00;7.70;99.90
50606;DHT22;36557;53.572;10.170;2022-09-29T07:11:26;7.90;99.90
50606;DHT22;36557;53.572;10.170;2022-09-29T07:13:53;7.90;99.90
50606;DHT22;36557;53.572;10.170;2022-09-29T07:16:19;8.20;99.90
50606;DHT22;36557;53.572;10.170;2022-09-29T07:18:48;8.20;99.90
50606;DHT22;36557;53.572;10.170;2022-09-29T07:21:15;8.20;99.90
50606;DHT22;36557;53.572;10.170;2022-09-29T07:23:42;8.10;99.90
50606;DHT22;36557;53.572;10.170;2022-09-29T07:26:08;8.30;99.90
50606;DHT22;36557;53.572;10.170;2022-09-29T07:28:34;8.30;99.90
50606;DHT22;36557;53.572;10.170;2022-09-29T07:31:03;8.40;99.90
50606;DHT22;36557;53.572;10.170;2022-09-29T07:33:32;8.40;99.90
50606;DHT22;36557;53.572;10.170;2022-09-29T07:35:58;8.40;99.90
50606;DHT22;36557;53.572;10.170;2022-09-29T07:38:25;8.30;99.90
50606;DHT22;36557;53.572;10.170;2022-09-29T07:40:52;8.50;99.90
50606;DHT22;36557;53.572;10.170;2022-09-29T07:43:17;8.60;99.90
50606;DHT22;36557;53.572;10.170;2022-09-29T07:45:50;8.90;99.90
50606;DHT22;36557;53.572;10.170;2022-09-29T07:48:17;8.90;99.90
50606;DHT22;36557;53.572;10.170;2022-09-29T07:50:43;8.90;99.90
50606;DHT22;36557;53.572;10.170;2022-09-29T07:53:11;8.90;99.90
50606;DHT22;36557;53.572;10.170;2022-09-29T07:55:37;8.90;99.90
50606;DHT22;36557;53.572;10.170;2022-09-29T07:58:04;8.90;99.90
50606;DHT22;36557;53.572;10.170;2022-09-29T08:00:30;9.00;99.90
50606;DHT22;36557;53.572;10.170;2022-09-29T08:03:04;9.10;99.90
50606;DHT22;36557;53.572;10.170;2022-09-29T08:05:31;9.20;99.90
50606;DHT22;36557;53.572;10.170;2022-09-29T08:07:59;9.20;99.90
50606;DHT22;36557;53.572;10.170;2022-09-29T08:10:26;9.30;99.90
50606;DHT22;36557;53.572;10.170;2022-09-29T08:12:52;9.40;99.90
50606;DHT22;36557;53.572;10.170;2022-09-29T08:15:19;9.30;99.90
50606;DHT22;36557;53.572;10.170;2022-09-29T08:17:45;9.30;99.90
50606;DHT22;36557;53.572;10.170;2022-09-29T08:20:11;9.50;99.90
50606;DHT22;36557;53.572;10.170;2022-09-29T08:22:37;9.60;99.90
50606;DHT22;36557;53.572;10.170;2022-09-29T08:25:03;9.80;99.90
50606;DHT22;36557;53.572;10.170;2022-09-29T08:27:28;9.90;99.90
50606;DHT22;36557;53.572;10.170;2022-09-29T08:29:54;10.00;99.90
50606;DHT22;36557;53.572;10.170;2022-09-29T08:32:21;10.10;99.90
50606;DHT22;36557;53.572;10.170;2022-09-29T08:34:47;10.10;99.90
50606;DHT22;36557;53.572;10.170;2022-09-29T08:37:12;10.30;99.90
50606;DHT22;36557;53.572;10.170;2022-09-29T08:39:38;10.60;99.90
50606;DHT22;36557;53.572;10.170;2022-09-29T08:42:16;10.80;99.90
50606;DHT22;36557;53.572;10.170;2022-09-29T08:44:55;10.80;99.90
50606;DHT22;36557;53.572;10.170;2022-09-29T08:47:49;10.80;99.90
50606;DHT22;36557;53.572;10.170;2022-09-29T08:50:32;11.00;99.90
50606;DHT22;36557;53.572;10.170;2022-09-29T08:53:06;11.00;99.90
50606;DHT22;36557;53.572;10.170;2022-09-29T08:58:17;10.90;99.90
50606;DHT22;36557;53.572;10.170;2022-09-29T09:01:06;11.10;99.90
50606;DHT22;36557;53.572;10.170;2022-09-29T09:09:12;11.50;99.90
50606;DHT22;36557;53.572;10.170;2022-09-29T09:22:57;12.80;99.90
50606;DHT22;36557;53.572;10.170;2022-09-29T09:25:34;12.80;99.90
50606;DHT22;36557;53.572;10.170;2022-09-29T09:28:04;12.70;99.90
50606;DHT22;36557;53.572;10.170;2022-09-29T09:30:37;13.00;99.90
50606;DHT22;36557;53.572;10.170;2022-09-29T09:33:13;12.90;99.90
50606;DHT22;36557;53.572;10.170;2022-09-29T09:35:54;12.90;99.90
50606;DHT22;36557;53.572;10.170;2022-09-29T09:38:25;12.80;99.90
50606;DHT22;36557;53.572;10.170;2022-09-29T09:40:54;12.70;99.90
50606;DHT22;36557;53.572;10.170;2022-09-29T09:43:38;12.80;99.90
50606;DHT22;36557;53.572;10.170;2022-09-29T09:46:16;12.90;99.90
50606;DHT22;36557;53.572;10.170;2022-09-29T09:48:55;13.10;99.90
50606;DHT22;36557;53.572;10.170;2022-09-29T09:51:31;13.20;99.90
50606;DHT22;36557;53.572;10.170;2022-09-29T09:53:58;13.40;99.90
50606;DHT22;36557;53.572;10.170;2022-09-29T10:01:57;13.60;99.90
50606;DHT22;36557;53.572;10.170;2022-09-29T10:04:23;13.70;99.90
50606;DHT22;36557;53.572;10.170;2022-09-29T10:06:51;13.80;99.90
50606;DHT22;36557;53.572;10.170;2022-09-29T10:09:17;14.10;99.90
50606;DHT22;36557;53.572;10.170;2022-09-29T10:11:44;14.00;99.90
50606;DHT22;36557;53.572;10.170;2022-09-29T10:14:14;14.10;99.90
50606;DHT22;36557;53.572;10.170;2022-09-29T10:19:21;13.80;99.90
50606;DHT22;36557;53.572;10.170;2022-09-29T10:21:47;13.70;99.90
50606;DHT22;36557;53.572;10.170;2022-09-29T10:24:28;13.70;99.90
50606;DHT22;36557;53.572;10.170;2022-09-29T10:26:57;13.90;99.90
50606;DHT22;36557;53.572;10.170;2022-09-29T10:34:46;13.70;99.90
50606;DHT22;36557;53.572;10.170;2022-09-29T10:37:23;14.10;99.90
50606;DHT22;36557;53.572;10.170;2022-09-29T10:42:44;14.80;99.90
50606;DHT22;36557;53.572;10.170;2022-09-29T10:50:29;15.70;99.90
50606;DHT22;36557;53.572;10.170;2022-09-29T10:52:57;15.60;99.90
50606;DHT22;36557;53.572;10.170;2022-09-29T10:55:27;15.50;99.90
50606;DHT22;36557;53.572;10.170;2022-09-29T10:57:59;15.40;99.90
50606;DHT22;36557;53.572;10.170;2022-09-29T11:00:31;15.30;99.90
50606;DHT22;36557;53.572;10.170;2022-09-29T11:03:15;15.10;99.90
50606;DHT22;36557;53.572;10.170;2022-09-29T11:06:11;14.90;99.90
50606;DHT22;36557;53.572;10.170;2022-09-29T11:11:54;14.30;99.90
50606;DHT22;36557;53.572;10.170;2022-09-29T11:16:54;14.00;99.90
50606;DHT22;36557;53.572;10.170;2022-09-29T11:19:20;13.80;99.90
50606;DHT22;36557;53.572;10.170;2022-09-29T11:24:34;13.60;99.90
50606;DHT22;36557;53.572;10.170;2022-09-29T11:30:19;13.50;99.90
50606;DHT22;36557;53.572;10.170;2022-09-29T11:32:54;13.50;99.90
50606;DHT22;36557;53.572;10.170;2022-09-29T11:36:06;13.50;99.90
50606;DHT22;36557;53.572;10.170;2022-09-29T11:38:30;13.50;99.90
50606;DHT22;36557;53.572;10.170;2022-09-29T11:44:22;13.30;99.90
50606;DHT22;36557;53.572;10.170;2022-09-29T12:03:48;13.20;99.90
50606;DHT22;36557;53.572;10.170;2022-09-29T12:06:54;13.30;99.90
50606;DHT22;36557;53.572;10.170;2022-09-29T12:09:39;13.60;99.90
50606;DHT22;36557;53.572;10.170;2022-09-29T12:12:29;13.40;99.90
50606;DHT22;36557;53.572;10.170;2022-09-29T12:17:35;12.90;99.90
50606;DHT22;36557;53.572;10.170;2022-09-29T12:20:49;13.00;99.90
50606;DHT22;36557;53.572;10.170;2022-09-29T12:23:10;12.80;99.90
50606;DHT22;36557;53.572;10.170;2022-09-29T12:26:05;12.70;99.90
50606;DHT22;36557;53.572;10.170;2022-09-29T12:29:02;12.90;99.90
50606;DHT22;36557;53.572;10.170;2022-09-29T12:31:36;12.90;99.90
50606;DHT22;36557;53.572;10.170;2022-09-29T12:39:48;12.70;99.90
50606;DHT22;36557;53.572;10.170;2022-09-29T12:45:15;12.60;99.90
50606;DHT22;36557;53.572;10.170;2022-09-29T12:50:31;12.60;99.90
50606;DHT22;36557;53.572;10.170;2022-09-29T12:53:13;12.50;99.90
50606;DHT22;36557;53.572;10.170;2022-09-29T12:58:36;12.60;99.90
50606;DHT22;36557;53.572;10.170;2022-09-29T13:04:20;12.50;99.90
50606;DHT22;36557;53.572;10.170;2022-09-29T13:12:49;12.40;99.90
50606;DHT22;36557;53.572;10.170;2022-09-29T13:18:29;12.20;99.90
50606;DHT22;36557;53.572;10.170;2022-09-29T13:23:51;12.00;99.90
50606;DHT22;36557;53.572;10.170;2022-09-29T13:29:16;11.90;99.90
50606;DHT22;36557;53.572;10.170;2022-09-29T13:31:43;11.90;99.90
50606;DHT22;36557;53.572;10.170;2022-09-29T13:34:27;11.90;99.90
50606;DHT22;36557;53.572;10.170;2022-09-29T13:37:04;11.90;99.90
50606;DHT22;36557;53.572;10.170;2022-09-29T13:39:31;12.00;99.90
50606;DHT22;36557;53.572;10.170;2022-09-29T13:47:55;11.90;99.90
50606;DHT22;36557;53.572;10.170;2022-09-29T13:50:48;12.00;99.90
50606;DHT22;36557;53.572;10.170;2022-09-29T14:00:53;11.70;99.90
50606;DHT22;36557;53.572;10.170;2022-09-29T14:03:36;11.70;99.90
50606;DHT22;36557;53.572;10.170;2022-09-29T14:08:45;11.60;99.90
50606;DHT22;36557;53.572;10.170;2022-09-29T14:11:19;11.50;99.90
50606;DHT22;36557;53.572;10.170;2022-09-29T14:22:02;11.30;99.90
50606;DHT22;36557;53.572;10.170;2022-09-29T14:27:18;11.10;99.90
50606;DHT22;36557;53.572;10.170;2022-09-29T14:29:54;11.20;99.90
50606;DHT22;36557;53.572;10.170;2022-09-29T14:32:52;11.30;99.90
50606;DHT22;36557;53.572;10.170;2022-09-29T14:35:29;11.30;99.90
50606;DHT22;36557;53.572;10.170;2022-09-29T14:38:20;11.30;99.90
50606;DHT22;36557;53.572;10.170;2022-09-29T14:55:17;11.30;99.90
50606;DHT22;36557;53.572;10.170;2022-09-29T15:03:46;11.20;99.90
50606;DHT22;36557;53.572;10.170;2022-09-29T15:06:22;11.10;99.90
50606;DHT22;36557;53.572;10.170;2022-09-29T15:11:49;11.20;99.90
50606;DHT22;36557;53.572;10.170;2022-09-29T15:19:35;11.40;99.90
50606;DHT22;36557;53.572;10.170;2022-09-29T15:27:21;11.40;99.90
50606;DHT22;36557;53.572;10.170;2022-09-29T15:29:48;11.30;99.90
50606;DHT22;36557;53.572;10.170;2022-09-29T15:32:25;11.40;99.90
50606;DHT22;36557;53.572;10.170;2022-09-29T15:34:58;11.40;99.90
50606;DHT22;36557;53.572;10.170;2022-09-29T15:37:25;11.40;99.90
50606;DHT22;36557;53.572;10.170;2022-09-29T15:39:52;11.40;99.90
50606;DHT22;36557;53.572;10.170;2022-09-29T15:42:20;11.40;99.90
50606;DHT22;36557;53.572;10.170;2022-09-29T15:44:54;11.50;99.90
50606;DHT22;36557;53.572;10.170;2022-09-29T15:47:26;11.40;99.90
50606;DHT22;36557;53.572;10.170;2022-09-29T15:49:53;11.40;99.90
50606;DHT22;36557;53.572;10.170;2022-09-29T15:52:20;11.40;99.90
50606;DHT22;36557;53.572;10.170;2022-09-29T15:54:54;11.40;99.90
50606;DHT22;36557;53.572;10.170;2022-09-29T15:57:43;11.40;99.90
50606;DHT22;36557;53.572;10.170;2022-09-29T16:02:47;11.30;99.90
50606;DHT22;36557;53.572;10.170;2022-09-29T16:05:18;11.20;99.90
50606;DHT22;36557;53.572;10.170;2022-09-29T16:07:51;11.20;99.90
50606;DHT22;36557;53.572;10.170;2022-09-29T16:10:20;11.10;99.90
50606;DHT22;36557;53.572;10.170;2022-09-29T16:13:01;11.10;99.90
50606;DHT22;36557;53.572;10.170;2022-09-29T16:15:31;11.10;99.90
50606;DHT22;36557;53.572;10.170;2022-09-29T16:17:59;11.00;99.90
50606;DHT22;36557;53.572;10.170;2022-09-29T16:20:29;11.00;99.90
50606;DHT22;36557;53.572;10.170;2022-09-29T16:22:56;10.90;99.90
50606;DHT22;36557;53.572;10.170;2022-09-29T16:25:28;11.00;99.90
50606;DHT22;36557;53.572;10.170;2022-09-29T16:27:59;10.90;99.90
50606;DHT22;36557;53.572;10.170;2022-09-29T16:30:30;10.90;99.90
50606;DHT22;36557;53.572;10.170;2022-09-29T16:38:29;10.90;99.90
50606;DHT22;36557;53.572;10.170;2022-09-29T16:41:24;10.90;99.90
50606;DHT22;36557;53.572;10.170;2022-09-29T16:44:16;10.80;99.90
50606;DHT22;36557;53.572;10.170;2022-09-29T16:49:31;10.80;99.90
50606;DHT22;36557;53.572;10.170;2022-09-29T16:54:44;10.70;99.90
50606;DHT22;36557;53.572;10.170;2022-09-29T16:57:25;10.70;99.90
50606;DHT22;36557;53.572;10.170;2022-09-29T16:59:56;10.70;99.90
50606;DHT22;36557;53.572;10.170;2022-09-29T17:02:23;10.70;99.90
50606;DHT22;36557;53.572;10.170;2022-09-29T17:04:50;10.70;99.90
50606;DHT22;36557;53.572;10.170;2022-09-29T17:07:18;10.70;99.90
50606;DHT22;36557;53.572;10.170;2022-09-29T17:09:50;10.70;99.90
50606;DHT22;36557;53.572;10.170;2022-09-29T17:12:17;10.70;99.90
50606;DHT22;36557;53.572;10.170;2022-09-29T17:14:43;10.70;99.90
50606;DHT22;36557;53.572;10.170;2022-09-29T17:17:25;10.60;99.90
50606;DHT22;36557;53.572;10.170;2022-09-29T17:19:52;10.60;99.90
50606;DHT22;36557;53.572;10.170;2022-09-29T17:22:33;10.70;99.90
50606;DHT22;36557;53.572;10.170;2022-09-29T17:24:59;10.70;99.90
50606;DHT22;36557;53.572;10.170;2022-09-29T17:27:26;10.60;99.90
50606;DHT22;36557;53.572;10.170;2022-09-29T17:30:11;10.70;99.90
50606;DHT22;36557;53.572;10.170;2022-09-29T17:32:42;10.60;99.90
50606;DHT22;36557;53.572;10.170;2022-09-29T17:35:18;10.60;99.90
50606;DHT22;36557;53.572;10.170;2022-09-29T17:37:44;10.60;99.90
50606;DHT22;36557;53.572;10.170;2022-09-29T17:40:26;10.60;99.90
50606;DHT22;36557;53.572;10.170;2022-09-29T17:42:54;10.60;99.90
50606;DHT22;36557;53.572;10.170;2022-09-29T17:45:23;10.50;99.90
50606;DHT22;36557;53.572;10.170;2022-09-29T17:47:50;10.60;99.90
50606;DHT22;36557;53.572;10.170;2022-09-29T17:50:30;10.40;99.90
50606;DHT22;36557;53.572;10.170;2022-09-29T17:52:57;10.50;99.90
50606;DHT22;36557;53.572;10.170;2022-09-29T17:55:25;10.50;99.90
50606;DHT22;36557;53.572;10.170;2022-09-29T17:57:52;10.40;99.90
50606;DHT22;36557;53.572;10.170;2022-09-29T18:00:26;10.40;99.90
50606;DHT22;36557;53.572;10.170;2022-09-29T18:02:53;10.40;99.90
50606;DHT22;36557;53.572;10.170;2022-09-29T18:05:26;10.40;99.90
50606;DHT22;36557;53.572;10.170;2022-09-29T18:07:53;10.40;99.90
50606;DHT22;36557;53.572;10.170;2022-09-29T18:12:51;10.40;99.90
50606;DHT22;36557;53.572;10.170;2022-09-29T18:15:17;10.40;99.90
50606;DHT22;36557;53.572;10.170;2022-09-29T18:17:43;10.40;99.90
50606;DHT22;36557;53.572;10.170;2022-09-29T18:20:20;10.40;99.90
50606;DHT22;36557;53.572;10.170;2022-09-29T18:22:46;10.40;99.90
50606;DHT22;36557;53.572;10.170;2022-09-29T18:25:17;10.30;99.90
50606;DHT22;36557;53.572;10.170;2022-09-29T18:27:43;10.40;99.90
50606;DHT22;36557;53.572;10.170;2022-09-29T18:30:30;10.40;99.90
50606;DHT22;36557;53.572;10.170;2022-09-29T18:32:58;10.30;99.90
50606;DHT22;36557;53.572;10.170;2022-09-29T18:35:33;10.40;99.90
50606;DHT22;36557;53.572;10.170;2022-09-29T18:37:59;10.40;99.90
50606;DHT22;36557;53.572;10.170;2022-09-29T18:40:27;10.30;99.90
50606;DHT22;36557;53.572;10.170;2022-09-29T18:42:54;10.40;99.90
50606;DHT22;36557;53.572;10.170;2022-09-29T18:45:29;10.30;99.90
50606;DHT22;36557;53.572;10.170;2022-09-29T18:48:00;10.40;99.90
50606;DHT22;36557;53.572;10.170;2022-09-29T18:50:33;10.30;99.90
50606;DHT22;36557;53.572;10.170;2022-09-29T18:53:00;10.40;99.90
50606;DHT22;36557;53.572;10.170;2022-09-29T18:55:27;10.30;99.90
50606;DHT22;36557;53.572;10.170;2022-09-29T18:57:55;10.30;99.90
50606;DHT22;36557;53.572;10.170;2022-09-29T19:00:24;10.30;99.90
50606;DHT22;36557;53.572;10.170;2022-09-29T19:02:50;10.30;99.90
50606;DHT22;36557;53.572;10.170;2022-09-29T19:05:18;10.20;99.90
50606;DHT22;36557;53.572;10.170;2022-09-29T19:07:47;10.30;99.90
50606;DHT22;36557;53.572;10.170;2022-09-29T19:10:15;10.20;99.90
50606;DHT22;36557;53.572;10.170;2022-09-29T19:12:42;10.30;99.90
50606;DHT22;36557;53.572;10.170;2022-09-29T19:15:14;10.30;99.90
50606;DHT22;36557;53.572;10.170;2022-09-29T19:17:40;10.20;99.90
50606;DHT22;36557;53.572;10.170;2022-09-29T19:20:06;10.30;99.90
50606;DHT22;36557;53.572;10.170;2022-09-29T19:22:32;10.20;99.90
50606;DHT22;36557;53.572;10.170;2022-09-29T19:25:02;10.30;99.90
50606;DHT22;36557;53.572;10.170;2022-09-29T19:27:28;10.30;99.90
50606;DHT22;36557;53.572;10.170;2022-09-29T19:29:54;10.30;99.90
50606;DHT22;36557;53.572;10.170;2022-09-29T19:32:21;10.30;99.90
50606;DHT22;36557;53.572;10.170;2022-09-29T19:34:49;10.30;99.90